createdAt,value
2022-08-18T00:02:18.363Z,1.27
2022-08-18T00:05:21.628Z,1.40
2022-08-18T00:08:23.430Z,1.08
2022-08-18T00:11:25.713Z,1.27
2022-08-18T00:14:27.479Z,0.98
2022-08-18T00:17:29.299Z,1.10
2022-08-18T00:20:31.103Z,1.27
2022-08-18T00:23:33.361Z,1.80
2022-08-18T00:26:37.071Z,1.50
2022-08-18T00:29:39.112Z,1.30
2022-08-18T00:32:51.264Z,1.50
2022-08-18T00:35:53.507Z,1.20
2022-08-18T00:38:55.478Z,1.30
2022-08-18T00:41:57.244Z,1.30
2022-08-18T00:45:02.691Z,1.38
2022-08-18T00:48:06.347Z,1.30
2022-08-18T00:51:20.942Z,1.23
2022-08-18T00:54:26.008Z,1.40
2022-08-18T00:57:28.859Z,1.38
2022-08-18T01:00:30.726Z,1.00
2022-08-18T01:03:35.178Z,1.42
2022-08-18T01:06:46.820Z,1.25
2022-08-18T01:09:51.321Z,1.30
2022-08-18T01:12:55.632Z,1.25
2022-08-18T01:15:57.700Z,1.40
2022-08-18T01:19:18.267Z,1.23
2022-08-18T01:22:24.740Z,1.45
2022-08-18T01:25:45.212Z,1.55
2022-08-18T01:28:47.241Z,1.02
2022-08-18T01:31:55.565Z,1.25
2022-08-18T01:34:57.597Z,1.17
2022-08-18T01:37:59.337Z,1.33
2022-08-18T01:41:26.466Z,1.52
2022-08-18T01:44:23.014Z,1.17
2022-08-18T01:47:25.228Z,1.25
2022-08-18T01:50:27.168Z,1.50
2022-08-18T01:53:29.180Z,1.25
2022-08-18T01:56:31.318Z,1.58
2022-08-18T01:59:35.244Z,1.20
2022-08-18T02:02:37.278Z,1.23
2022-08-18T02:05:47.611Z,1.20
2022-08-18T02:08:53.665Z,1.60
2022-08-18T02:11:56.319Z,1.20
2022-08-18T02:14:58.305Z,1.45
2022-08-18T02:18:00.116Z,1.40
2022-08-18T02:21:11.728Z,1.20
2022-08-18T02:24:13.518Z,1.20
2022-08-18T02:27:17.020Z,1.50
2022-08-18T02:30:20.014Z,1.15
2022-08-18T02:33:21.807Z,1.10
2022-08-18T02:36:23.822Z,1.25
2022-08-18T02:39:28.481Z,1.40
2022-08-18T02:42:31.045Z,1.25
2022-08-18T02:45:32.790Z,1.58
2022-08-18T02:48:34.911Z,1.42
2022-08-18T02:51:36.826Z,1.23
2022-08-18T02:54:39.009Z,1.17
2022-08-18T02:57:45.905Z,1.30
2022-08-18T03:00:48.417Z,1.75
2022-08-18T03:03:50.663Z,1.33
2022-08-18T03:06:53.163Z,1.20
2022-08-18T03:09:54.907Z,1.20
2022-08-18T03:12:56.727Z,1.38
2022-08-18T03:15:58.646Z,1.40
2022-08-18T03:19:01.588Z,1.30
2022-08-18T03:22:04.292Z,1.30
2022-08-18T03:25:26.030Z,1.25
2022-08-18T03:28:28.782Z,1.38
2022-08-18T03:31:31.438Z,1.20
2022-08-18T03:34:33.308Z,1.30
2022-08-18T03:37:35.122Z,1.13
2022-08-18T03:40:37.560Z,1.10
2022-08-18T03:43:50.633Z,1.27
2022-08-18T03:46:53.712Z,1.33
2022-08-18T03:49:55.479Z,1.30
2022-08-18T03:52:59.492Z,1.25
2022-08-18T03:56:01.569Z,1.80
2022-08-18T03:59:10.729Z,1.30
2022-08-18T04:02:12.978Z,1.30
2022-08-18T04:05:14.882Z,1.30
2022-08-18T04:08:16.839Z,1.20
2022-08-18T04:11:19.076Z,1.10
2022-08-18T04:14:42.014Z,1.20
2022-08-18T04:18:02.939Z,1.20
2022-08-18T04:21:09.543Z,1.30
2022-08-18T04:24:13.435Z,1.40
2022-08-18T04:27:15.298Z,1.65
2022-08-18T04:30:17.201Z,1.33
2022-08-18T04:33:20.311Z,1.27
2022-08-18T04:36:22.787Z,1.13
2022-08-18T04:39:25.637Z,1.30
2022-08-18T04:42:27.445Z,1.70
2022-08-18T04:45:29.622Z,1.40
2022-08-18T04:48:35.714Z,1.40
2022-08-18T04:52:33.996Z,1.15
2022-08-18T04:55:05.499Z,1.70
2022-08-18T04:58:07.861Z,1.40
2022-08-18T05:01:10.071Z,1.25
2022-08-18T05:04:14.256Z,1.20
2022-08-18T05:07:19.288Z,1.60
2022-08-18T05:10:21.071Z,1.70
2022-08-18T05:13:23.662Z,1.35
2022-08-18T05:16:27.691Z,1.38
2022-08-18T05:19:30.788Z,1.50
2022-08-18T05:22:41.199Z,1.40
2022-08-18T05:25:43.257Z,1.30
2022-08-18T05:28:46.446Z,1.40
2022-08-18T05:31:49.993Z,1.20
2022-08-18T05:34:51.877Z,1.75
2022-08-18T05:38:02.247Z,1.65
2022-08-18T05:41:07.672Z,1.52
2022-08-18T05:44:19.140Z,1.42
2022-08-18T05:47:28.759Z,1.50
2022-08-18T05:50:34.893Z,1.60
2022-08-18T05:53:55.550Z,1.23
2022-08-18T05:57:05.421Z,1.13
2022-08-18T06:00:10.740Z,1.50
2022-08-18T06:03:25.757Z,1.38
2022-08-18T06:06:32.631Z,1.40
2022-08-18T06:09:52.187Z,1.70
2022-08-18T06:12:59.653Z,1.38
2022-08-18T06:19:28.301Z,1.42
2022-08-18T06:22:56.699Z,1.50
2022-08-18T06:29:30.839Z,1.47
2022-08-18T06:33:07.721Z,1.15
2022-08-18T06:36:25.191Z,1.40
2022-08-18T06:39:35.064Z,1.40
2022-08-18T06:42:40.414Z,1.33
2022-08-18T06:45:45.456Z,1.40
2022-08-18T06:48:54.653Z,1.52
2022-08-18T06:51:56.489Z,1.75
2022-08-18T06:55:02.163Z,1.33
2022-08-18T06:58:25.807Z,1.65
2022-08-18T07:01:27.690Z,1.63
2022-08-18T07:04:37.549Z,1.55
2022-08-18T07:07:41.411Z,1.30
2022-08-18T07:10:49.980Z,1.40
2022-08-18T07:14:15.157Z,1.40
2022-08-18T07:17:42.339Z,1.20
2022-08-18T07:20:53.899Z,1.75
2022-08-18T07:24:25.272Z,1.80
2022-08-18T07:27:49.170Z,1.50
2022-08-18T07:31:15.574Z,1.90
2022-08-18T07:34:19.050Z,1.50
2022-08-18T07:37:29.351Z,3.15
2022-08-18T07:41:03.409Z,1.70
2022-08-18T07:44:34.429Z,1.38
2022-08-18T07:47:56.559Z,1.40
2022-08-18T07:51:25.080Z,1.30
2022-08-18T07:54:48.764Z,1.83
2022-08-18T07:57:54.422Z,1.65
2022-08-18T08:01:06.929Z,1.90
2022-08-18T08:04:26.586Z,1.70
2022-08-18T08:07:40.419Z,1.77
2022-08-18T08:11:06.153Z,1.42
2022-08-18T08:14:32.314Z,1.48
2022-08-18T08:17:46.482Z,1.90
2022-08-18T08:20:58.909Z,1.77
2022-08-18T08:24:24.661Z,1.38
2022-08-18T08:28:00.350Z,1.60
2022-08-18T08:31:36.955Z,1.50
2022-08-18T08:35:05.726Z,1.65
2022-08-18T08:38:40.237Z,1.83
2022-08-18T08:42:30.345Z,1.80
2022-08-18T08:45:32.202Z,1.33
2022-08-18T08:48:49.164Z,1.80
2022-08-18T08:51:57.889Z,1.60
2022-08-18T08:55:26.309Z,1.60
2022-08-18T09:02:05.903Z,1.60
2022-08-18T09:05:16.987Z,2.05
2022-08-18T09:08:30.496Z,1.98
2022-08-18T09:12:01.483Z,1.88
2022-08-18T09:15:12.160Z,1.65
2022-08-18T09:18:32.332Z,1.80
2022-08-18T09:21:44.407Z,1.77
2022-08-18T09:24:51.353Z,1.42
2022-08-18T09:28:17.866Z,1.70
2022-08-18T09:31:20.054Z,1.67
2022-08-18T09:34:51.372Z,1.60
2022-08-18T09:38:26.659Z,1.52
2022-08-18T09:41:34.063Z,1.60
2022-08-18T09:54:48.159Z,1.77
2022-08-18T09:58:29.108Z,1.75
2022-08-18T10:01:37.163Z,1.83
2022-08-18T10:04:49.042Z,1.55
2022-08-18T10:08:01.558Z,1.80
2022-08-18T10:11:23.032Z,1.85
2022-08-18T10:18:20.106Z,1.42
2022-08-18T10:21:31.115Z,2.03
2022-08-18T10:24:52.049Z,2.13
2022-08-18T10:27:56.737Z,1.63
2022-08-18T10:31:10.250Z,1.77
2022-08-18T10:34:19.129Z,1.60
2022-08-18T10:37:42.159Z,1.92
2022-08-18T10:44:31.023Z,1.67
2022-08-18T10:47:33.175Z,1.70
2022-08-18T10:50:41.714Z,2.20
2022-08-18T10:53:58.977Z,1.90
2022-08-18T10:57:16.622Z,1.58
2022-08-18T11:00:20.820Z,1.60
2022-08-18T11:03:51.115Z,1.90
2022-08-18T11:07:19.864Z,1.60
2022-08-18T11:10:57.979Z,1.60
2022-08-18T11:14:12.996Z,1.85
2022-08-18T11:17:22.896Z,2.08
2022-08-18T11:20:31.876Z,1.80
2022-08-18T11:23:33.852Z,1.88
2022-08-18T11:30:12.285Z,1.85
2022-08-18T11:33:22.959Z,1.73
2022-08-18T11:36:32.612Z,1.63
2022-08-18T11:39:47.903Z,1.95
2022-08-18T11:42:59.998Z,1.70
2022-08-18T11:46:13.836Z,2.03
2022-08-18T11:49:28.585Z,1.88
2022-08-18T11:52:35.291Z,1.80
2022-08-18T11:55:38.349Z,1.48
2022-08-18T11:58:50.441Z,1.95
2022-08-18T12:01:54.728Z,1.35
2022-08-18T12:08:56.722Z,2.17
2022-08-18T12:12:01.468Z,1.80
2022-08-18T12:15:17.680Z,1.90
2022-08-18T12:18:29.744Z,1.73
2022-08-18T12:21:32.596Z,1.90
2022-08-18T12:24:39.270Z,1.75
2022-08-18T12:30:46.207Z,1.80
2022-08-18T12:34:01.288Z,1.70
2022-08-18T12:37:07.165Z,1.80
2022-08-18T12:40:16.211Z,1.40
2022-08-18T12:43:18.030Z,1.80
2022-08-18T12:46:22.489Z,1.73
2022-08-18T12:49:27.464Z,1.90
2022-08-18T12:52:31.338Z,1.77
2022-08-18T12:55:43.692Z,1.67
2022-08-18T12:58:46.054Z,1.60
2022-08-18T13:01:48.003Z,1.85
2022-08-18T13:04:50.151Z,2.17
2022-08-18T13:07:52.536Z,2.00
2022-08-18T13:10:56.414Z,2.00
2022-08-18T13:14:00.855Z,1.77
2022-08-18T13:17:05.136Z,2.00
2022-08-18T13:20:14.927Z,2.20
2022-08-18T13:23:20.074Z,2.08
2022-08-18T13:26:33.401Z,1.90
2022-08-18T13:29:35.163Z,1.80
2022-08-18T13:32:58.297Z,1.80
2022-08-18T13:36:00.439Z,2.08
2022-08-18T13:39:02.310Z,2.40
2022-08-18T13:42:26.341Z,2.20
2022-08-18T13:45:26.465Z,1.95
2022-08-18T13:48:31.401Z,2.15
2022-08-18T13:51:34.264Z,2.05
2022-08-18T13:54:36.148Z,2.13
2022-08-18T13:57:48.101Z,2.05
2022-08-18T14:01:15.848Z,2.08
2022-08-18T14:04:20.946Z,2.00
2022-08-18T14:07:27.491Z,2.10
2022-08-18T14:10:30.018Z,1.90
2022-08-18T14:13:38.385Z,2.00
2022-08-18T14:16:46.078Z,2.10
2022-08-18T14:20:06.245Z,2.17
2022-08-18T14:23:33.405Z,1.70
2022-08-18T14:26:50.991Z,2.10
2022-08-18T14:29:53.422Z,2.22
2022-08-18T14:32:58.563Z,2.08
2022-08-18T14:36:06.622Z,1.90
2022-08-18T14:39:11.226Z,2.05
2022-08-18T14:42:15.810Z,2.00
2022-08-18T14:45:34.113Z,1.80
2022-08-18T14:48:37.413Z,1.95
2022-08-18T14:51:42.823Z,1.90
2022-08-18T14:54:46.248Z,2.05
2022-08-18T14:57:53.299Z,1.90
2022-08-18T15:01:02.205Z,2.10
2022-08-18T15:04:19.280Z,1.95
2022-08-18T15:07:23.833Z,1.90
2022-08-18T15:10:28.027Z,1.90
2022-08-18T15:13:30.194Z,1.85
2022-08-18T15:16:34.982Z,1.98
2022-08-18T15:19:58.554Z,2.08
2022-08-18T15:23:28.013Z,2.00
2022-08-18T15:26:30.945Z,2.00
2022-08-18T15:29:33.349Z,2.00
2022-08-18T15:32:35.203Z,2.10
2022-08-18T15:35:41.552Z,1.77
2022-08-18T15:38:45.994Z,2.00
2022-08-18T15:44:56.780Z,2.13
2022-08-18T15:47:59.402Z,2.10
2022-08-18T15:51:11.605Z,1.83
2022-08-18T15:54:14.085Z,2.08
2022-08-18T15:57:38.853Z,2.03
2022-08-18T16:00:45.556Z,1.77
2022-08-18T16:03:48.905Z,1.98
2022-08-18T16:06:52.673Z,1.95
2022-08-18T16:09:54.851Z,2.00
2022-08-18T16:12:56.826Z,1.90
2022-08-18T16:15:58.608Z,2.10
2022-08-18T16:19:01.868Z,1.70
2022-08-18T16:22:07.347Z,2.20
2022-08-18T16:25:10.232Z,1.73
2022-08-18T16:28:13.286Z,2.00
2022-08-18T16:31:16.325Z,2.10
2022-08-18T16:34:18.154Z,1.98
2022-08-18T16:37:20.194Z,2.15
2022-08-18T16:40:22.066Z,2.38
2022-08-18T16:43:23.888Z,1.98
2022-08-18T16:46:27.878Z,1.92
2022-08-18T16:49:29.712Z,2.20
2022-08-18T16:52:33.607Z,2.00
2022-08-18T16:55:35.447Z,2.20
2022-08-18T16:58:56.020Z,2.00
2022-08-18T17:02:16.489Z,2.10
2022-08-18T17:05:18.322Z,1.90
2022-08-18T17:08:20.071Z,2.00
2022-08-18T17:11:22.811Z,2.15
2022-08-18T17:14:27.739Z,2.08
2022-08-18T17:17:29.864Z,2.30
2022-08-18T17:20:35.351Z,2.35
2022-08-18T17:23:39.041Z,2.30
2022-08-18T17:27:26.548Z,1.98
2022-08-18T17:30:35.433Z,2.10
2022-08-18T17:33:40.757Z,2.20
2022-08-18T17:36:52.898Z,2.35
2022-08-18T17:40:02.042Z,2.10
2022-08-18T17:43:04.795Z,2.15
2022-08-18T17:46:14.323Z,2.58
2022-08-18T17:49:48.926Z,2.00
2022-08-18T17:53:06.151Z,2.20
2022-08-18T17:57:05.460Z,2.13
2022-08-18T18:00:17.248Z,2.33
2022-08-18T18:03:19.209Z,2.20
2022-08-18T18:06:42.222Z,2.10
2022-08-18T18:10:01.127Z,2.10
2022-08-18T18:13:22.267Z,2.35
2022-08-18T18:16:34.816Z,2.20
2022-08-18T18:19:37.238Z,2.35
2022-08-18T18:22:40.699Z,2.47
2022-08-18T18:25:43.262Z,2.25
2022-08-18T18:28:45.116Z,2.17
2022-08-18T18:31:56.597Z,1.98
2022-08-18T18:35:21.522Z,2.10
2022-08-18T18:38:27.537Z,1.90
2022-08-18T18:41:29.319Z,1.83
2022-08-18T18:44:32.749Z,2.17
2022-08-18T18:48:51.294Z,2.30
2022-08-18T18:51:56.980Z,2.10
2022-08-18T18:55:03.684Z,2.20
2022-08-18T18:58:30.365Z,2.03
2022-08-18T19:01:48.326Z,2.00
2022-08-18T19:04:52.923Z,2.20
2022-08-18T19:08:20.459Z,2.40
2022-08-18T19:11:41.068Z,1.95
2022-08-18T19:14:52.136Z,2.10
2022-08-18T19:18:16.253Z,2.33
2022-08-18T19:22:05.766Z,2.30
2022-08-18T19:25:00.568Z,3.72
2022-08-18T19:28:16.320Z,2.20
2022-08-18T19:31:26.776Z,2.20
2022-08-18T19:34:32.214Z,1.95
2022-08-18T19:37:55.571Z,2.40
2022-08-18T19:41:20.244Z,2.25
2022-08-18T19:44:35.682Z,2.08
2022-08-18T19:47:46.543Z,2.10
2022-08-18T19:50:50.947Z,2.03
2022-08-18T19:54:01.360Z,2.17
2022-08-18T19:57:40.522Z,2.45
2022-08-18T20:01:02.324Z,1.85
2022-08-18T20:04:57.160Z,2.20
2022-08-18T20:08:33.537Z,2.30
2022-08-18T20:11:42.211Z,2.33
2022-08-18T20:15:12.629Z,2.03
2022-08-18T20:18:23.172Z,2.50
2022-08-18T20:22:01.483Z,2.00
2022-08-18T20:25:23.475Z,1.90
2022-08-18T20:28:35.190Z,2.15
2022-08-18T20:31:49.158Z,2.03
2022-08-18T20:34:51.715Z,2.47
2022-08-18T20:38:12.669Z,2.28
2022-08-18T20:41:23.756Z,2.15
2022-08-18T20:44:49.760Z,1.88
2022-08-18T20:47:57.541Z,2.20
2022-08-18T20:51:07.438Z,2.00
2022-08-18T20:54:18.942Z,2.00
2022-08-18T20:57:22.268Z,2.15
2022-08-18T21:00:27.449Z,2.40
2022-08-18T21:03:42.843Z,2.20
2022-08-18T21:06:44.849Z,2.13
2022-08-18T21:09:53.060Z,1.90
2022-08-18T21:13:04.062Z,2.10
2022-08-18T21:16:10.702Z,1.80
2022-08-18T21:19:24.921Z,2.27
2022-08-18T21:22:28.085Z,2.00
2022-08-18T21:25:32.439Z,2.10
2022-08-18T21:28:37.943Z,2.00
2022-08-18T21:31:45.091Z,2.50
2022-08-18T21:38:05.524Z,2.00
2022-08-18T21:41:13.044Z,2.10
2022-08-18T21:47:26.032Z,2.40
2022-08-18T21:50:30.580Z,2.13
2022-08-18T21:53:35.546Z,2.40
2022-08-18T21:56:38.044Z,2.25
2022-08-18T22:00:23.897Z,2.33
2022-08-18T22:03:28.184Z,2.13
2022-08-18T22:06:32.957Z,2.30
2022-08-18T22:10:18.347Z,2.00
2022-08-18T22:13:43.228Z,2.25
2022-08-18T22:16:46.179Z,2.38
2022-08-18T22:19:49.067Z,2.53
2022-08-18T22:23:09.659Z,2.15
2022-08-18T22:26:17.599Z,2.05
2022-08-18T22:29:35.708Z,2.05
2022-08-18T22:32:47.270Z,2.40
2022-08-18T22:35:56.858Z,2.20
2022-08-18T22:39:00.508Z,2.78
2022-08-18T22:42:03.512Z,2.35
2022-08-18T22:45:09.202Z,1.92
2022-08-18T22:48:11.590Z,2.20
2022-08-18T22:51:13.364Z,2.20
2022-08-18T22:54:16.115Z,2.15
2022-08-18T22:57:18.024Z,2.50
2022-08-18T23:00:26.156Z,2.40
2022-08-18T23:03:28.052Z,2.30
2022-08-18T23:06:31.558Z,2.58
2022-08-18T23:09:34.631Z,2.17
2022-08-18T23:12:36.482Z,2.55
2022-08-18T23:16:12.884Z,2.50
2022-08-18T23:19:21.524Z,2.20
2022-08-18T23:22:23.306Z,2.78
2022-08-18T23:25:25.176Z,2.20
2022-08-18T23:28:27.152Z,2.47
2022-08-18T23:31:30.185Z,2.22
2022-08-18T23:34:33.022Z,2.10
2022-08-18T23:37:34.883Z,2.33
2022-08-18T23:40:39.343Z,2.10
2022-08-18T23:43:41.877Z,2.15
2022-08-18T23:46:44.523Z,2.42
2022-08-18T23:49:46.730Z,2.45
2022-08-18T23:52:56.371Z,2.00
2022-08-18T23:55:58.209Z,2.40
2022-08-18T23:59:00.970Z,2.75
